sensor_id;sensor_type;location;lat;lon;timestamp;pressure;altitude;pressure_sealevel;temperature;humidity
5966;BME280;3009;43.224;27.976;2023-01-29T00:02:18;100552.97;;;-0.67;92.42
5966;BME280;3009;43.224;27.976;2023-01-29T00:04:48;100563.13;;;-0.71;92.43
5966;BME280;3009;43.224;27.976;2023-01-29T00:07:16;100556.53;;;-0.74;92.43
5966;BME280;3009;43.224;27.976;2023-01-29T00:09:44;100572.09;;;-0.72;92.69
5966;BME280;3009;43.224;27.976;2023-01-29T00:12:13;100563.50;;;-0.67;91.48
5966;BME280;3009;43.224;27.976;2023-01-29T00:14:41;100548.25;;;-0.65;90.99
5966;BME280;3009;43.224;27.976;2023-01-29T00:17:09;100569.47;;;-0.60;91.32
5966;BME280;3009;43.224;27.976;2023-01-29T00:19:37;100566.13;;;-0.67;91.76
5966;BME280;3009;43.224;27.976;2023-01-29T00:22:07;100559.72;;;-0.72;92.18
5966;BME280;3009;43.224;27.976;2023-01-29T00:24:35;100566.94;;;-0.67;92.49
5966;BME280;3009;43.224;27.976;2023-01-29T00:27:03;100571.75;;;-0.64;91.91
5966;BME280;3009;43.224;27.976;2023-01-29T00:29:31;100571.88;;;-0.70;92.49
5966;BME280;3009;43.224;27.976;2023-01-29T00:32:00;100581.47;;;-0.64;92.18
5966;BME280;3009;43.224;27.976;2023-01-29T00:34:28;100572.66;;;-0.70;91.99
5966;BME280;3009;43.224;27.976;2023-01-29T00:36:56;100564.75;;;-0.70;91.91
5966;BME280;3009;43.224;27.976;2023-01-29T00:39:31;100574.81;;;-0.67;91.97
5966;BME280;3009;43.224;27.976;2023-01-29T00:42:13;100580.00;;;-0.72;92.08
5966;BME280;3009;43.224;27.976;2023-01-29T00:44:59;100578.03;;;-0.77;92.28
5966;BME280;3009;43.224;27.976;2023-01-29T00:47:28;100575.50;;;-0.83;92.46
5966;BME280;3009;43.224;27.976;2023-01-29T00:50:01;100579.84;;;-0.77;92.41
5966;BME280;3009;43.224;27.976;2023-01-29T00:52:30;100574.50;;;-0.70;91.39
5966;BME280;3009;43.224;27.976;2023-01-29T00:54:59;100575.75;;;-0.73;91.18
5966;BME280;3009;43.224;27.976;2023-01-29T00:57:30;100562.47;;;-0.78;91.20
5966;BME280;3009;43.224;27.976;2023-01-29T00:59:58;100572.31;;;-0.74;90.91
5966;BME280;3009;43.224;27.976;2023-01-29T01:02:27;100569.78;;;-0.68;90.86
5966;BME280;3009;43.224;27.976;2023-01-29T01:05:14;100571.50;;;-0.74;90.84
5966;BME280;3009;43.224;27.976;2023-01-29T01:07:45;100572.19;;;-0.67;90.85
5966;BME280;3009;43.224;27.976;2023-01-29T01:10:18;100574.34;;;-0.76;91.14
5966;BME280;3009;43.224;27.976;2023-01-29T01:12:52;100567.38;;;-0.70;91.46
5966;BME280;3009;43.224;27.976;2023-01-29T01:15:21;100569.47;;;-0.72;91.05
5966;BME280;3009;43.224;27.976;2023-01-29T01:17:53;100563.72;;;-0.69;90.92
5966;BME280;3009;43.224;27.976;2023-01-29T01:20:22;100567.38;;;-0.70;90.73
5966;BME280;3009;43.224;27.976;2023-01-29T01:22:50;100565.34;;;-0.68;90.52
5966;BME280;3009;43.224;27.976;2023-01-29T01:25:22;100577.91;;;-0.70;90.45
5966;BME280;3009;43.224;27.976;2023-01-29T01:27:51;100581.94;;;-0.67;90.43
5966;BME280;3009;43.224;27.976;2023-01-29T01:30:20;100574.81;;;-0.79;91.13
5966;BME280;3009;43.224;27.976;2023-01-29T01:32:48;100583.31;;;-0.77;91.36
5966;BME280;3009;43.224;27.976;2023-01-29T01:35:17;100587.75;;;-0.77;91.36
5966;BME280;3009;43.224;27.976;2023-01-29T01:37:45;100580.09;;;-0.67;91.42
5966;BME280;3009;43.224;27.976;2023-01-29T01:40:17;100580.00;;;-0.72;90.84
5966;BME280;3009;43.224;27.976;2023-01-29T01:42:48;100587.44;;;-0.69;90.49
5966;BME280;3009;43.224;27.976;2023-01-29T01:45:19;100591.22;;;-0.65;89.94
5966;BME280;3009;43.224;27.976;2023-01-29T01:47:51;100593.03;;;-0.65;89.94
5966;BME280;3009;43.224;27.976;2023-01-29T01:50:22;100587.19;;;-0.79;90.64
5966;BME280;3009;43.224;27.976;2023-01-29T01:52:56;100603.91;;;-0.74;90.84
5966;BME280;3009;43.224;27.976;2023-01-29T01:55:28;100595.41;;;-0.76;90.52
5966;BME280;3009;43.224;27.976;2023-01-29T01:58:02;100600.22;;;-0.73;90.73
5966;BME280;3009;43.224;27.976;2023-01-29T02:00:32;100593.25;;;-0.67;90.58
5966;BME280;3009;43.224;27.976;2023-01-29T02:03:01;100596.94;;;-0.68;89.99
5966;BME280;3009;43.224;27.976;2023-01-29T02:05:46;100599.91;;;-0.76;89.72
5966;BME280;3009;43.224;27.976;2023-01-29T02:08:40;100598.50;;;-0.79;89.24
5966;BME280;3009;43.224;27.976;2023-01-29T02:11:26;100601.59;;;-0.82;89.81
5966;BME280;3009;43.224;27.976;2023-01-29T02:13:56;100605.13;;;-0.88;88.90
5966;BME280;3009;43.224;27.976;2023-01-29T02:16:25;100592.78;;;-0.87;88.87
5966;BME280;3009;43.224;27.976;2023-01-29T02:18:53;100599.66;;;-0.86;89.42
5966;BME280;3009;43.224;27.976;2023-01-29T02:21:56;100577.91;;;-0.82;89.55
5966;BME280;3009;43.224;27.976;2023-01-29T02:25:11;100600.22;;;-0.96;90.62
5966;BME280;3009;43.224;27.976;2023-01-29T02:28:18;100611.06;;;-0.93;91.22
5966;BME280;3009;43.224;27.976;2023-01-29T02:30:57;100617.06;;;-0.85;91.54
5966;BME280;3009;43.224;27.976;2023-01-29T02:33:39;100613.97;;;-0.82;91.59
5966;BME280;3009;43.224;27.976;2023-01-29T02:36:16;100606.88;;;-0.70;91.27
5966;BME280;3009;43.224;27.976;2023-01-29T02:38:54;100620.28;;;-0.72;91.28
5966;BME280;3009;43.224;27.976;2023-01-29T02:41:27;100606.44;;;-0.67;91.73
5966;BME280;3009;43.224;27.976;2023-01-29T02:44:04;100608.81;;;-0.77;92.05
5966;BME280;3009;43.224;27.976;2023-01-29T02:46:36;100620.25;;;-0.83;92.63
5966;BME280;3009;43.224;27.976;2023-01-29T02:49:10;100614.41;;;-0.85;92.89
5966;BME280;3009;43.224;27.976;2023-01-29T02:51:50;100615.47;;;-0.75;92.57
5966;BME280;3009;43.224;27.976;2023-01-29T02:54:23;100597.16;;;-0.81;92.43
5966;BME280;3009;43.224;27.976;2023-01-29T02:56:55;100602.50;;;-0.88;91.32
5966;BME280;3009;43.224;27.976;2023-01-29T02:59:30;100591.19;;;-0.88;90.57
5966;BME280;3009;43.224;27.976;2023-01-29T03:02:03;100592.41;;;-0.91;89.08
5966;BME280;3009;43.224;27.976;2023-01-29T03:04:38;100576.75;;;-0.98;88.06
5966;BME280;3009;43.224;27.976;2023-01-29T03:07:13;100564.94;;;-1.07;87.45
5966;BME280;3009;43.224;27.976;2023-01-29T03:10:04;100575.91;;;-1.10;87.56
5966;BME280;3009;43.224;27.976;2023-01-29T03:12:37;100558.97;;;-1.14;88.57
5966;BME280;3009;43.224;27.976;2023-01-29T03:15:12;100544.78;;;-1.13;89.25
5966;BME280;3009;43.224;27.976;2023-01-29T03:17:46;100564.22;;;-1.14;89.97
5966;BME280;3009;43.224;27.976;2023-01-29T03:20:17;100545.22;;;-1.16;90.31
5966;BME280;3009;43.224;27.976;2023-01-29T03:22:51;100544.09;;;-1.20;90.90
5966;BME280;3009;43.224;27.976;2023-01-29T03:25:23;100564.69;;;-1.17;90.91
5966;BME280;3009;43.224;27.976;2023-01-29T03:28:13;100552.69;;;-1.13;90.76
5966;BME280;3009;43.224;27.976;2023-01-29T03:31:04;100558.63;;;-1.06;90.74
5966;BME280;3009;43.224;27.976;2023-01-29T03:33:58;100559.44;;;-1.05;90.34
5966;BME280;3009;43.224;27.976;2023-01-29T03:36:33;100552.13;;;-1.03;90.34
5966;BME280;3009;43.224;27.976;2023-01-29T03:39:06;100571.34;;;-1.03;89.74
5966;BME280;3009;43.224;27.976;2023-01-29T03:41:37;100552.56;;;-1.07;89.80
5966;BME280;3009;43.224;27.976;2023-01-29T03:44:13;100574.56;;;-1.01;88.09
5966;BME280;3009;43.224;27.976;2023-01-29T03:46:49;100564.25;;;-1.02;88.20
5966;BME280;3009;43.224;27.976;2023-01-29T03:49:24;100592.63;;;-1.04;88.24
5966;BME280;3009;43.224;27.976;2023-01-29T03:52:02;100583.38;;;-1.07;88.59
5966;BME280;3009;43.224;27.976;2023-01-29T03:54:50;100583.66;;;-1.15;88.59
5966;BME280;3009;43.224;27.976;2023-01-29T03:57:27;100570.66;;;-1.10;88.55
5966;BME280;3009;43.224;27.976;2023-01-29T04:00:02;100583.44;;;-1.14;89.02
5966;BME280;3009;43.224;27.976;2023-01-29T04:02:38;100573.81;;;-1.20;89.46
5966;BME280;3009;43.224;27.976;2023-01-29T04:05:14;100579.19;;;-1.15;89.85
5966;BME280;3009;43.224;27.976;2023-01-29T04:07:44;100578.63;;;-1.17;89.55
5966;BME280;3009;43.224;27.976;2023-01-29T04:10:15;100572.81;;;-1.19;89.88
5966;BME280;3009;43.224;27.976;2023-01-29T04:12:47;100579.31;;;-1.21;89.82
5966;BME280;3009;43.224;27.976;2023-01-29T04:15:18;100615.47;;;-1.17;90.58
5966;BME280;3009;43.224;27.976;2023-01-29T04:17:51;100591.44;;;-1.20;90.29
5966;BME280;3009;43.224;27.976;2023-01-29T04:20:19;100585.28;;;-1.14;90.45
5966;BME280;3009;43.224;27.976;2023-01-29T04:22:50;100619.34;;;-1.19;90.29
5966;BME280;3009;43.224;27.976;2023-01-29T04:25:20;100611.00;;;-1.16;90.14
5966;BME280;3009;43.224;27.976;2023-01-29T04:27:58;100611.16;;;-1.11;90.33
5966;BME280;3009;43.224;27.976;2023-01-29T04:30:38;100623.94;;;-1.15;90.40
5966;BME280;3009;43.224;27.976;2023-01-29T04:33:30;100634.25;;;-1.13;90.56
5966;BME280;3009;43.224;27.976;2023-01-29T04:36:10;100624.44;;;-1.06;90.99
5966;BME280;3009;43.224;27.976;2023-01-29T04:38:49;100636.44;;;-1.10;91.16
5966;BME280;3009;43.224;27.976;2023-01-29T04:41:24;100643.91;;;-1.07;90.96
5966;BME280;3009;43.224;27.976;2023-01-29T04:44:04;100646.38;;;-1.12;91.33
5966;BME280;3009;43.224;27.976;2023-01-29T04:46:44;100646.16;;;-1.11;91.63
5966;BME280;3009;43.224;27.976;2023-01-29T04:49:24;100656.81;;;-1.05;92.13
5966;BME280;3009;43.224;27.976;2023-01-29T04:52:01;100661.88;;;-1.04;92.38
5966;BME280;3009;43.224;27.976;2023-01-29T04:54:39;100662.66;;;-1.03;92.29
5966;BME280;3009;43.224;27.976;2023-01-29T04:57:18;100672.63;;;-1.05;92.33
5966;BME280;3009;43.224;27.976;2023-01-29T04:59:55;100677.72;;;-1.11;92.54
5966;BME280;3009;43.224;27.976;2023-01-29T05:02:25;100676.63;;;-1.03;92.90
5966;BME280;3009;43.224;27.976;2023-01-29T05:04:57;100689.44;;;-1.07;93.09
5966;BME280;3009;43.224;27.976;2023-01-29T05:07:27;100691.16;;;-1.00;92.86
5966;BME280;3009;43.224;27.976;2023-01-29T05:09:57;100700.06;;;-1.01;93.50
5966;BME280;3009;43.224;27.976;2023-01-29T05:12:28;100686.47;;;-0.98;93.88
5966;BME280;3009;43.224;27.976;2023-01-29T05:15:01;100703.59;;;-1.08;94.22
5966;BME280;3009;43.224;27.976;2023-01-29T05:17:31;100692.91;;;-0.94;94.44
5966;BME280;3009;43.224;27.976;2023-01-29T05:20:00;100696.97;;;-1.10;95.36
5966;BME280;3009;43.224;27.976;2023-01-29T05:22:29;100699.38;;;-1.09;95.72
5966;BME280;3009;43.224;27.976;2023-01-29T05:24:57;100718.25;;;-1.12;95.92
5966;BME280;3009;43.224;27.976;2023-01-29T05:27:31;100711.28;;;-1.06;96.00
5966;BME280;3009;43.224;27.976;2023-01-29T05:30:19;100720.06;;;-1.12;96.16
5966;BME280;3009;43.224;27.976;2023-01-29T05:32:47;100714.78;;;-1.12;96.65
5966;BME280;3009;43.224;27.976;2023-01-29T05:35:17;100712.00;;;-0.99;96.34
5966;BME280;3009;43.224;27.976;2023-01-29T05:37:45;100718.72;;;-0.84;95.83
5966;BME280;3009;43.224;27.976;2023-01-29T05:40:13;100707.31;;;-0.97;95.02
5966;BME280;3009;43.224;27.976;2023-01-29T05:42:42;100726.63;;;-1.03;95.48
5966;BME280;3009;43.224;27.976;2023-01-29T05:45:10;100726.69;;;-0.91;95.08
5966;BME280;3009;43.224;27.976;2023-01-29T05:47:38;100739.72;;;-0.96;94.96
5966;BME280;3009;43.224;27.976;2023-01-29T05:50:07;100729.97;;;-0.96;95.44
5966;BME280;3009;43.224;27.976;2023-01-29T05:52:37;100732.44;;;-0.82;95.29
5966;BME280;3009;43.224;27.976;2023-01-29T05:55:07;100731.53;;;-0.76;93.97
5966;BME280;3009;43.224;27.976;2023-01-29T05:57:35;100729.59;;;-0.81;93.93
5966;BME280;3009;43.224;27.976;2023-01-29T06:00:04;100744.59;;;-0.81;94.33
5966;BME280;3009;43.224;27.976;2023-01-29T06:02:33;100735.88;;;-0.82;94.17
5966;BME280;3009;43.224;27.976;2023-01-29T06:05:01;100744.50;;;-0.75;94.15
5966;BME280;3009;43.224;27.976;2023-01-29T06:07:30;100744.84;;;-0.71;94.24
5966;BME280;3009;43.224;27.976;2023-01-29T06:09:59;100747.69;;;-0.73;94.12
5966;BME280;3009;43.224;27.976;2023-01-29T06:12:27;100754.34;;;-0.70;94.54
5966;BME280;3009;43.224;27.976;2023-01-29T06:14:56;100755.75;;;-0.67;94.18
5966;BME280;3009;43.224;27.976;2023-01-29T06:17:24;100762.63;;;-0.66;94.33
5966;BME280;3009;43.224;27.976;2023-01-29T06:19:52;100769.19;;;-0.57;94.33
5966;BME280;3009;43.224;27.976;2023-01-29T06:22:20;100769.84;;;-0.62;94.24
5966;BME280;3009;43.224;27.976;2023-01-29T06:24:48;100769.41;;;-0.59;94.21
5966;BME280;3009;43.224;27.976;2023-01-29T06:27:18;100767.69;;;-0.53;94.06
5966;BME280;3009;43.224;27.976;2023-01-29T06:29:47;100765.53;;;-0.44;94.19
5966;BME280;3009;43.224;27.976;2023-01-29T06:32:15;100767.38;;;-0.45;94.69
5966;BME280;3009;43.224;27.976;2023-01-29T06:34:43;100772.91;;;-0.34;93.96
5966;BME280;3009;43.224;27.976;2023-01-29T06:37:15;100782.06;;;-0.37;93.78
5966;BME280;3009;43.224;27.976;2023-01-29T06:39:43;100784.13;;;-0.27;93.69
5966;BME280;3009;43.224;27.976;2023-01-29T06:42:11;100791.06;;;-0.14;92.05
5966;BME280;3009;43.224;27.976;2023-01-29T06:44:41;100779.94;;;-0.16;91.82
5966;BME280;3009;43.224;27.976;2023-01-29T06:47:09;100783.50;;;-0.23;91.91
5966;BME280;3009;43.224;27.976;2023-01-29T06:49:38;100781.53;;;-0.15;92.24
5966;BME280;3009;43.224;27.976;2023-01-29T06:52:06;100782.59;;;-0.05;91.58
5966;BME280;3009;43.224;27.976;2023-01-29T06:54:34;100790.72;;;-0.06;91.80
5966;BME280;3009;43.224;27.976;2023-01-29T06:57:02;100780.31;;;-0.01;90.81
5966;BME280;3009;43.224;27.976;2023-01-29T06:59:30;100790.75;;;0.06;89.93
5966;BME280;3009;43.224;27.976;2023-01-29T07:02:00;100785.13;;;0.02;89.32
5966;BME280;3009;43.224;27.976;2023-01-29T07:04:30;100789.69;;;-0.05;89.13
5966;BME280;3009;43.224;27.976;2023-01-29T07:06:58;100795.13;;;0.00;90.21
5966;BME280;3009;43.224;27.976;2023-01-29T07:09:26;100796.03;;;0.17;88.76
5966;BME280;3009;43.224;27.976;2023-01-29T07:11:55;100795.09;;;0.12;89.37
5966;BME280;3009;43.224;27.976;2023-01-29T07:14:23;100790.66;;;0.12;88.75
5966;BME280;3009;43.224;27.976;2023-01-29T07:16:51;100790.66;;;0.12;88.23
5966;BME280;3009;43.224;27.976;2023-01-29T07:19:20;100792.91;;;-0.03;89.09
5966;BME280;3009;43.224;27.976;2023-01-29T07:21:49;100788.78;;;0.01;88.49
5966;BME280;3009;43.224;27.976;2023-01-29T07:24:17;100788.00;;;0.12;88.33
5966;BME280;3009;43.224;27.976;2023-01-29T07:26:46;100792.94;;;0.21;88.40
5966;BME280;3009;43.224;27.976;2023-01-29T07:29:14;100806.59;;;0.29;88.18
5966;BME280;3009;43.224;27.976;2023-01-29T07:31:42;100811.97;;;0.23;87.50
5966;BME280;3009;43.224;27.976;2023-01-29T07:34:11;100815.88;;;0.20;88.13
5966;BME280;3009;43.224;27.976;2023-01-29T07:36:40;100806.25;;;0.26;88.09
5966;BME280;3009;43.224;27.976;2023-01-29T07:39:08;100824.78;;;0.07;88.88
5966;BME280;3009;43.224;27.976;2023-01-29T07:41:36;100821.59;;;0.05;88.57
5966;BME280;3009;43.224;27.976;2023-01-29T07:44:04;100831.22;;;0.11;87.09
5966;BME280;3009;43.224;27.976;2023-01-29T07:46:33;100811.84;;;0.17;87.26
5966;BME280;3009;43.224;27.976;2023-01-29T07:49:01;100818.59;;;0.13;87.54
5966;BME280;3009;43.224;27.976;2023-01-29T07:51:29;100823.66;;;0.03;86.75
5966;BME280;3009;43.224;27.976;2023-01-29T07:53:59;100823.88;;;0.02;87.51
5966;BME280;3009;43.224;27.976;2023-01-29T07:56:27;100833.88;;;0.11;86.56
5966;BME280;3009;43.224;27.976;2023-01-29T07:58:55;100826.66;;;0.19;86.36
5966;BME280;3009;43.224;27.976;2023-01-29T08:01:23;100826.53;;;0.25;86.91
5966;BME280;3009;43.224;27.976;2023-01-29T08:03:52;100822.75;;;0.33;86.87
5966;BME280;3009;43.224;27.976;2023-01-29T08:06:20;100839.41;;;0.33;87.02
5966;BME280;3009;43.224;27.976;2023-01-29T08:08:48;100831.72;;;0.32;87.63
5966;BME280;3009;43.224;27.976;2023-01-29T08:11:19;100839.03;;;0.30;87.67
5966;BME280;3009;43.224;27.976;2023-01-29T08:13:47;100826.00;;;0.47;86.94
5966;BME280;3009;43.224;27.976;2023-01-29T08:16:15;100831.38;;;0.40;85.71
5966;BME280;3009;43.224;27.976;2023-01-29T08:18:43;100831.59;;;0.27;85.65
5966;BME280;3009;43.224;27.976;2023-01-29T08:21:14;100826.75;;;0.12;86.27
5966;BME280;3009;43.224;27.976;2023-01-29T08:23:43;100828.50;;;0.30;85.54
5966;BME280;3009;43.224;27.976;2023-01-29T08:26:11;100832.63;;;0.14;85.90
5966;BME280;3009;43.224;27.976;2023-01-29T08:28:40;100817.47;;;0.09;87.04
5966;BME280;3009;43.224;27.976;2023-01-29T08:31:13;100835.81;;;0.16;87.84
5966;BME280;3009;43.224;27.976;2023-01-29T08:33:41;100817.47;;;0.09;88.93
5966;BME280;3009;43.224;27.976;2023-01-29T08:36:09;100810.13;;;0.11;89.00
5966;BME280;3009;43.224;27.976;2023-01-29T08:38:37;100816.66;;;0.09;88.86
5966;BME280;3009;43.224;27.976;2023-01-29T08:41:06;100808.59;;;-0.08;89.34
5966;BME280;3009;43.224;27.976;2023-01-29T08:43:34;100816.06;;;-0.05;90.25
5966;BME280;3009;43.224;27.976;2023-01-29T08:46:06;100813.66;;;-0.07;90.50
5966;BME280;3009;43.224;27.976;2023-01-29T08:48:34;100808.84;;;-0.10;90.43
5966;BME280;3009;43.224;27.976;2023-01-29T08:51:03;100822.47;;;-0.13;90.47
5966;BME280;3009;43.224;27.976;2023-01-29T08:53:31;100822.69;;;-0.14;91.36
5966;BME280;3009;43.224;27.976;2023-01-29T08:55:59;100811.13;;;-0.13;90.35
5966;BME280;3009;43.224;27.976;2023-01-29T08:58:28;100809.63;;;-0.09;90.05
5966;BME280;3009;43.224;27.976;2023-01-29T09:01:05;100825.22;;;-0.20;89.86
5966;BME280;3009;43.224;27.976;2023-01-29T09:03:34;100806.31;;;-0.05;89.57
5966;BME280;3009;43.224;27.976;2023-01-29T09:06:03;100819.47;;;-0.16;89.93
5966;BME280;3009;43.224;27.976;2023-01-29T09:08:31;100815.59;;;-0.02;89.29
5966;BME280;3009;43.224;27.976;2023-01-29T09:10:59;100814.22;;;-0.05;89.38
5966;BME280;3009;43.224;27.976;2023-01-29T09:13:28;100802.19;;;-0.01;89.41
5966;BME280;3009;43.224;27.976;2023-01-29T09:15:58;100799.03;;;0.09;87.15
5966;BME280;3009;43.224;27.976;2023-01-29T09:18:28;100798.88;;;0.04;86.49
5966;BME280;3009;43.224;27.976;2023-01-29T09:20:57;100793.16;;;0.07;86.30
5966;BME280;3009;43.224;27.976;2023-01-29T09:23:25;100808.06;;;0.13;84.50
5966;BME280;3009;43.224;27.976;2023-01-29T09:25:53;100780.44;;;0.16;84.50
5966;BME280;3009;43.224;27.976;2023-01-29T09:28:22;100799.59;;;0.23;84.72
5966;BME280;3009;43.224;27.976;2023-01-29T09:30:50;100811.97;;;0.11;85.97
5966;BME280;3009;43.224;27.976;2023-01-29T09:33:19;100784.00;;;0.10;86.61
5966;BME280;3009;43.224;27.976;2023-01-29T09:35:50;100806.25;;;0.14;86.59
5966;BME280;3009;43.224;27.976;2023-01-29T09:38:18;100783.41;;;0.20;86.60
5966;BME280;3009;43.224;27.976;2023-01-29T09:40:54;100760.81;;;0.12;85.19
5966;BME280;3009;43.224;27.976;2023-01-29T09:43:30;100771.50;;;0.05;84.86
5966;BME280;3009;43.224;27.976;2023-01-29T09:46:14;100787.09;;;0.07;83.76
5966;BME280;3009;43.224;27.976;2023-01-29T09:48:44;100742.59;;;-0.02;82.73
5966;BME280;3009;43.224;27.976;2023-01-29T09:51:23;100743.97;;;0.01;82.35
5966;BME280;3009;43.224;27.976;2023-01-29T09:53:57;100747.66;;;0.00;83.41
5966;BME280;3009;43.224;27.976;2023-01-29T09:56:30;100757.06;;;0.08;83.59
5966;BME280;3009;43.224;27.976;2023-01-29T09:58:59;100741.56;;;-0.01;83.80
5966;BME280;3009;43.224;27.976;2023-01-29T10:01:32;100753.81;;;0.06;84.69
5966;BME280;3009;43.224;27.976;2023-01-29T10:04:21;100758.53;;;-0.08;83.57
5966;BME280;3009;43.224;27.976;2023-01-29T10:07:04;100750.63;;;-0.08;83.69
5966;BME280;3009;43.224;27.976;2023-01-29T10:13:06;100756.22;;;-0.16;84.72
5966;BME280;3009;43.224;27.976;2023-01-29T10:15:46;100743.72;;;-0.09;84.52
5966;BME280;3009;43.224;27.976;2023-01-29T10:18:48;100743.38;;;-0.13;85.29
5966;BME280;3009;43.224;27.976;2023-01-29T10:21:54;100752.78;;;-0.05;84.76
5966;BME280;3009;43.224;27.976;2023-01-29T10:24:35;100760.81;;;-0.12;83.27
5966;BME280;3009;43.224;27.976;2023-01-29T10:27:12;100741.91;;;-0.09;82.80
5966;BME280;3009;43.224;27.976;2023-01-29T10:29:42;100747.97;;;-0.08;83.28
5966;BME280;3009;43.224;27.976;2023-01-29T10:32:14;100745.69;;;-0.16;81.83
5966;BME280;3009;43.224;27.976;2023-01-29T10:34:46;100759.19;;;-0.13;81.70
5966;BME280;3009;43.224;27.976;2023-01-29T10:37:18;100736.88;;;-0.10;81.95
5966;BME280;3009;43.224;27.976;2023-01-29T10:39:51;100754.16;;;-0.14;82.90
5966;BME280;3009;43.224;27.976;2023-01-29T10:42:25;100746.59;;;-0.11;83.93
5966;BME280;3009;43.224;27.976;2023-01-29T10:45:14;100743.25;;;-0.06;83.61
5966;BME280;3009;43.224;27.976;2023-01-29T10:48:06;100744.19;;;-0.12;82.75
5966;BME280;3009;43.224;27.976;2023-01-29T10:50:46;100754.28;;;-0.21;83.36
5966;BME280;3009;43.224;27.976;2023-01-29T10:53:25;100740.06;;;-0.08;82.45
5966;BME280;3009;43.224;27.976;2023-01-29T10:56:03;100725.94;;;-0.26;82.24
5966;BME280;3009;43.224;27.976;2023-01-29T10:58:51;100728.81;;;-0.15;82.46
5966;BME280;3009;43.224;27.976;2023-01-29T11:01:20;100743.25;;;-0.06;82.88
5966;BME280;3009;43.224;27.976;2023-01-29T11:03:56;100748.09;;;-0.03;83.35
5966;BME280;3009;43.224;27.976;2023-01-29T11:06:29;100741.22;;;-0.16;83.07
5966;BME280;3009;43.224;27.976;2023-01-29T11:09:02;100764.13;;;-0.16;84.19
5966;BME280;3009;43.224;27.976;2023-01-29T11:11:38;100751.63;;;-0.09;83.51
5966;BME280;3009;43.224;27.976;2023-01-29T11:14:12;100748.66;;;-0.13;82.27
5966;BME280;3009;43.224;27.976;2023-01-29T11:16:43;100777.41;;;-0.23;83.51
5966;BME280;3009;43.224;27.976;2023-01-29T11:19:12;100765.88;;;-0.10;81.81
5966;BME280;3009;43.224;27.976;2023-01-29T11:21:51;100764.00;;;-0.22;81.21
5966;BME280;3009;43.224;27.976;2023-01-29T11:24:20;100754.94;;;-0.26;81.29
5966;BME280;3009;43.224;27.976;2023-01-29T11:26:51;100762.50;;;-0.29;82.26
5966;BME280;3009;43.224;27.976;2023-01-29T11:29:38;100761.50;;;-0.16;82.52
5966;BME280;3009;43.224;27.976;2023-01-29T11:32:11;100773.59;;;-0.27;83.06
5966;BME280;3009;43.224;27.976;2023-01-29T11:35:01;100785.91;;;-0.09;82.83
5966;BME280;3009;43.224;27.976;2023-01-29T11:37:34;100786.25;;;-0.17;83.46
5966;BME280;3009;43.224;27.976;2023-01-29T11:43:21;100803.59;;;0.02;82.84
5966;BME280;3009;43.224;27.976;2023-01-29T11:45:52;100795.31;;;-0.02;82.67
5966;BME280;3009;43.224;27.976;2023-01-29T11:48:29;100789.81;;;0.12;82.61
5966;BME280;3009;43.224;27.976;2023-01-29T11:50:59;100799.03;;;0.09;82.84
5966;BME280;3009;43.224;27.976;2023-01-29T11:53:34;100795.16;;;-0.19;82.64
5966;BME280;3009;43.224;27.976;2023-01-29T11:56:14;100792.91;;;-0.03;82.31
5966;BME280;3009;43.224;27.976;2023-01-29T11:58:46;100790.41;;;0.02;81.36
5966;BME280;3009;43.224;27.976;2023-01-29T12:01:21;100791.66;;;-0.01;80.89
5966;BME280;3009;43.224;27.976;2023-01-29T12:03:52;100792.56;;;-0.07;81.36
5966;BME280;3009;43.224;27.976;2023-01-29T12:06:22;100787.84;;;-0.05;81.88
5966;BME280;3009;43.224;27.976;2023-01-29T12:08:54;100786.94;;;-0.10;81.85
5966;BME280;3009;43.224;27.976;2023-01-29T12:11:27;100781.00;;;-0.06;81.11
5966;BME280;3009;43.224;27.976;2023-01-29T12:13:58;100797.53;;;0.02;81.24
5966;BME280;3009;43.224;27.976;2023-01-29T12:16:30;100788.69;;;-0.04;81.42
5966;BME280;3009;43.224;27.976;2023-01-29T12:19:06;100793.34;;;-0.06;81.71
5966;BME280;3009;43.224;27.976;2023-01-29T12:21:43;100801.25;;;-0.06;81.53
5966;BME280;3009;43.224;27.976;2023-01-29T12:24:28;100797.25;;;-0.09;81.90
5966;BME280;3009;43.224;27.976;2023-01-29T12:27:04;100809.63;;;-0.09;82.47
5966;BME280;3009;43.224;27.976;2023-01-29T12:29:42;100805.50;;;-0.05;82.12
5966;BME280;3009;43.224;27.976;2023-01-29T12:32:23;100809.44;;;0.04;81.50
5966;BME280;3009;43.224;27.976;2023-01-29T12:34:57;100811.91;;;-0.13;82.10
5966;BME280;3009;43.224;27.976;2023-01-29T12:37:37;100811.47;;;-0.10;81.78
5966;BME280;3009;43.224;27.976;2023-01-29T12:40:11;100811.38;;;0.09;81.59
5966;BME280;3009;43.224;27.976;2023-01-29T12:42:45;100814.81;;;-0.03;80.95
5966;BME280;3009;43.224;27.976;2023-01-29T12:45:18;100823.03;;;-0.11;81.71
5966;BME280;3009;43.224;27.976;2023-01-29T12:47:51;100812.25;;;-0.21;81.92
5966;BME280;3009;43.224;27.976;2023-01-29T12:50:24;100825.09;;;-0.13;81.95
5966;BME280;3009;43.224;27.976;2023-01-29T12:52:56;100816.41;;;-0.13;82.18
5966;BME280;3009;43.224;27.976;2023-01-29T12:55:29;100807.88;;;-0.15;81.82
5966;BME280;3009;43.224;27.976;2023-01-29T12:58:02;100816.13;;;-0.24;82.81
5966;BME280;3009;43.224;27.976;2023-01-29T13:00:34;100815.47;;;-0.19;83.30
5966;BME280;3009;43.224;27.976;2023-01-29T13:03:09;100819.78;;;-0.25;84.41
5966;BME280;3009;43.224;27.976;2023-01-29T13:05:46;100819.13;;;-0.20;85.18
5966;BME280;3009;43.224;27.976;2023-01-29T13:08:18;100810.66;;;-0.10;84.91
5966;BME280;3009;43.224;27.976;2023-01-29T13:10:50;100814.44;;;-0.06;84.50
5966;BME280;3009;43.224;27.976;2023-01-29T13:13:25;100816.97;;;-0.11;84.39
5966;BME280;3009;43.224;27.976;2023-01-29T13:15:57;100820.50;;;-0.17;84.50
5966;BME280;3009;43.224;27.976;2023-01-29T13:18:36;100829.38;;;-0.30;84.57
5966;BME280;3009;43.224;27.976;2023-01-29T13:21:12;100827.81;;;-0.31;84.55
5966;BME280;3009;43.224;27.976;2023-01-29T13:23:44;100834.13;;;-0.21;83.65
5966;BME280;3009;43.224;27.976;2023-01-29T13:26:17;100821.41;;;-0.24;82.92
5966;BME280;3009;43.224;27.976;2023-01-29T13:28:46;100822.13;;;-0.16;82.73
5966;BME280;3009;43.224;27.976;2023-01-29T13:31:26;100827.13;;;-0.27;82.35
5966;BME280;3009;43.224;27.976;2023-01-29T13:34:03;100831.72;;;-0.22;81.85
5966;BME280;3009;43.224;27.976;2023-01-29T13:36:36;100834.69;;;-0.19;81.51
5966;BME280;3009;43.224;27.976;2023-01-29T13:39:18;100846.63;;;-0.16;80.43
5966;BME280;3009;43.224;27.976;2023-01-29T13:41:48;100842.06;;;-0.09;80.62